createdAt,value
2017-06-01T00:01:04.751Z,38.54
2017-06-01T00:03:33.025Z,48.62
2017-06-01T00:06:01.989Z,43.92
2017-06-01T00:08:31.157Z,41.90
2017-06-01T00:10:59.370Z,32.74
2017-06-01T00:13:28.325Z,39.32
2017-06-01T00:15:57.507Z,31.10
2017-06-01T00:18:25.806Z,35.78
2017-06-01T00:20:54.814Z,30.44
2017-06-01T00:23:24.089Z,46.16
2017-06-01T00:25:53.101Z,48.14
2017-06-01T00:28:22.069Z,52.04
2017-06-01T00:30:50.514Z,45.54
2017-06-01T00:33:18.737Z,42.92
2017-06-01T00:35:47.657Z,43.60
2017-06-01T00:38:16.875Z,52.46
2017-06-01T00:40:45.911Z,43.02
2017-06-01T00:43:14.193Z,43.98
2017-06-01T00:45:42.727Z,55.84
2017-06-01T00:48:10.918Z,52.36
2017-06-01T00:50:39.818Z,51.98
2017-06-01T00:53:08.842Z,41.00
2017-06-01T00:55:37.725Z,44.66
2017-06-01T00:58:06.613Z,42.24
2017-06-01T01:00:36.128Z,45.00
2017-06-01T01:03:05.061Z,37.76
2017-06-01T01:05:33.261Z,54.38
2017-06-01T01:08:02.417Z,43.48
2017-06-01T01:10:30.613Z,48.10
2017-06-01T01:12:59.546Z,38.16
2017-06-01T01:15:28.543Z,43.34
2017-06-01T01:17:57.442Z,42.70
2017-06-01T01:20:26.407Z,48.04
2017-06-01T01:22:54.777Z,58.98
2017-06-01T01:25:22.937Z,47.94
2017-06-01T01:27:51.965Z,43.92
2017-06-01T01:30:20.318Z,52.08
2017-06-01T01:32:49.399Z,47.98
2017-06-01T01:35:18.470Z,56.42
2017-06-01T01:37:47.706Z,44.54
2017-06-01T01:40:16.806Z,49.18
2017-06-01T01:42:45.142Z,60.34
2017-06-01T01:45:13.741Z,49.52
2017-06-01T01:47:42.210Z,41.58
2017-06-01T01:50:10.729Z,46.98
2017-06-01T01:52:40.138Z,40.82
2017-06-01T01:55:09.233Z,42.90
2017-06-01T01:57:37.553Z,55.78
2017-06-01T02:00:05.882Z,52.78
2017-06-01T02:02:34.973Z,62.14
2017-06-01T02:05:04.069Z,42.86
2017-06-01T02:07:33.285Z,33.00
2017-06-01T02:10:02.314Z,50.02
2017-06-01T02:12:31.384Z,58.80
2017-06-01T02:15:00.590Z,54.84
2017-06-01T02:17:29.689Z,49.82
2017-06-01T02:19:58.866Z,43.58
2017-06-01T02:22:27.565Z,60.96
2017-06-01T02:24:58.070Z,53.54
2017-06-01T02:27:27.552Z,48.76
2017-06-01T02:29:57.062Z,35.34
2017-06-01T02:32:25.354Z,47.06
2017-06-01T02:34:54.653Z,44.38
2017-06-01T02:37:23.738Z,47.40
2017-06-01T02:39:55.595Z,50.44
2017-06-01T02:42:26.120Z,60.68
2017-06-01T02:44:55.229Z,41.96
2017-06-01T02:47:24.374Z,50.78
2017-06-01T02:49:53.865Z,49.50
2017-06-01T02:52:22.195Z,48.04
2017-06-01T02:54:51.305Z,55.28
2017-06-01T02:57:20.610Z,42.66
2017-06-01T02:59:48.966Z,41.62
2017-06-01T03:02:17.930Z,42.08
2017-06-01T03:04:47.129Z,37.64
2017-06-01T03:07:16.281Z,54.96
2017-06-01T03:09:45.370Z,49.76
2017-06-01T03:12:14.630Z,51.60
2017-06-01T03:14:43.741Z,41.38
2017-06-01T03:17:12.853Z,37.08
2017-06-01T03:19:41.982Z,44.58
2017-06-01T03:22:11.050Z,48.88
2017-06-01T03:24:40.054Z,41.12
2017-06-01T03:27:08.610Z,57.44
2017-06-01T03:29:37.730Z,45.80
2017-06-01T03:32:06.118Z,47.34
2017-06-01T03:34:34.646Z,44.98
2017-06-01T03:37:03.717Z,50.82
2017-06-01T03:39:32.914Z,50.50
2017-06-01T03:42:01.458Z,40.62
2017-06-01T03:44:30.738Z,42.66
2017-06-01T03:46:59.178Z,55.88
2017-06-01T03:49:28.351Z,49.06
2017-06-01T03:51:57.633Z,47.64
2017-06-01T03:54:26.653Z,51.90
2017-06-01T03:56:55.173Z,53.32
2017-06-01T03:59:24.278Z,50.92
2017-06-01T04:01:53.310Z,53.52
2017-06-01T04:04:21.849Z,43.72
2017-06-01T04:06:51.006Z,49.24
2017-06-01T04:09:19.318Z,61.86
2017-06-01T04:11:47.788Z,58.52
2017-06-01T04:14:16.143Z,41.92
2017-06-01T04:16:45.211Z,56.90
2017-06-01T04:19:14.405Z,45.12
2017-06-01T04:21:42.666Z,55.00
2017-06-01T04:24:11.642Z,46.38
2017-06-01T04:26:40.106Z,56.64
2017-06-01T04:29:08.344Z,56.40
2017-06-01T04:31:37.363Z,66.82
2017-06-01T04:34:06.493Z,78.32
2017-06-01T04:36:34.701Z,67.00
2017-06-01T04:39:03.010Z,65.10
2017-06-01T04:41:32.200Z,74.00
2017-06-01T04:44:01.226Z,63.36
2017-06-01T04:46:29.561Z,82.24
2017-06-01T04:48:58.832Z,75.32
2017-06-01T04:51:27.001Z,92.62
2017-06-01T04:53:56.152Z,68.52
2017-06-01T04:56:25.209Z,76.22
2017-06-01T04:58:54.258Z,77.46
2017-06-01T05:01:23.251Z,88.16
2017-06-01T05:03:51.493Z,72.88
2017-06-01T05:06:20.454Z,79.12
2017-06-01T05:08:49.353Z,84.36
2017-06-01T05:11:18.437Z,75.68
2017-06-01T05:13:46.725Z,86.10
2017-06-01T05:16:14.973Z,86.98
2017-06-01T05:18:43.358Z,71.28
2017-06-01T05:21:12.335Z,75.12
2017-06-01T05:23:40.537Z,90.42
2017-06-01T05:26:09.781Z,70.06
2017-06-01T05:28:38.758Z,80.94
2017-06-01T05:31:07.002Z,96.48
2017-06-01T05:33:36.129Z,82.98
2017-06-01T05:36:05.074Z,96.00
2017-06-01T05:38:34.023Z,82.50
2017-06-01T05:41:02.365Z,107.96
2017-06-01T05:43:31.305Z,71.45
2017-06-01T05:45:59.697Z,87.15
2017-06-01T05:48:28.726Z,89.98
2017-06-01T05:50:56.965Z,94.12
2017-06-01T05:53:25.090Z,85.25
2017-06-01T05:55:53.433Z,88.98
2017-06-01T05:58:23.338Z,104.26
2017-06-01T06:00:51.459Z,98.40
2017-06-01T06:03:19.802Z,92.62
2017-06-01T06:05:48.733Z,94.92
2017-06-01T06:08:17.629Z,92.56
2017-06-01T06:10:46.745Z,82.06
2017-06-01T06:13:15.042Z,95.34
2017-06-01T06:15:43.953Z,100.02
2017-06-01T06:18:12.296Z,108.86
2017-06-01T06:20:40.584Z,116.00
2017-06-01T06:23:09.530Z,106.52
2017-06-01T06:25:37.917Z,97.90
2017-06-01T06:28:06.900Z,90.72
2017-06-01T06:30:35.802Z,106.20
2017-06-01T06:33:04.049Z,95.28
2017-06-01T06:35:32.285Z,117.07
2017-06-01T06:38:01.218Z,102.65
2017-06-01T06:40:30.381Z,114.38
2017-06-01T06:42:59.320Z,101.23
2017-06-01T06:45:28.253Z,87.35
2017-06-01T06:47:57.286Z,74.63
2017-06-01T06:50:26.182Z,107.18
2017-06-01T06:52:54.401Z,120.60
2017-06-01T06:55:22.701Z,93.53
2017-06-01T06:57:51.737Z,105.46
2017-06-01T07:00:20.016Z,109.10
2017-06-01T07:02:48.438Z,129.88
2017-06-01T07:05:16.634Z,124.14
2017-06-01T07:07:45.550Z,121.14
2017-06-01T07:10:14.662Z,118.28
2017-06-01T07:12:43.637Z,114.52
2017-06-01T07:15:11.838Z,108.46
2017-06-01T07:17:40.820Z,83.60
2017-06-01T07:20:08.980Z,90.28
2017-06-01T07:22:37.189Z,91.74
2017-06-01T07:25:06.302Z,105.62
2017-06-01T07:27:34.605Z,94.44
2017-06-01T07:30:03.662Z,98.44
2017-06-01T07:32:32.742Z,97.34
2017-06-01T07:35:01.690Z,116.26
2017-06-01T07:37:30.748Z,94.44
2017-06-01T07:39:59.177Z,107.06
2017-06-01T07:42:28.081Z,109.84
2017-06-01T07:44:56.973Z,83.72
2017-06-01T07:47:25.237Z,100.96
2017-06-01T07:49:54.251Z,93.74
2017-06-01T07:52:22.468Z,101.12
2017-06-01T07:54:50.760Z,105.88
2017-06-01T07:57:18.975Z,92.56
2017-06-01T07:59:47.359Z,125.78
2017-06-01T08:02:16.507Z,105.98
2017-06-01T08:04:44.777Z,99.96
2017-06-01T08:07:13.084Z,95.80
2017-06-01T08:09:42.208Z,123.10
2017-06-01T08:12:11.167Z,96.98
2017-06-01T08:14:39.337Z,89.10
2017-06-01T08:17:07.675Z,99.56
2017-06-01T08:19:35.943Z,124.12
2017-06-01T08:22:04.161Z,134.10
2017-06-01T08:24:33.264Z,118.30
2017-06-01T08:27:02.879Z,101.84
2017-06-01T08:29:31.883Z,126.22
2017-06-01T08:32:00.976Z,119.38
2017-06-01T08:34:29.103Z,107.96
2017-06-01T08:36:58.111Z,130.50
2017-06-01T08:39:27.259Z,118.36
2017-06-01T08:41:56.371Z,136.96
2017-06-01T08:44:24.675Z,107.02
2017-06-01T08:46:53.779Z,129.72
2017-06-01T08:49:22.789Z,142.40
2017-06-01T08:51:51.064Z,135.90
2017-06-01T08:54:20.057Z,121.58
2017-06-01T08:56:48.963Z,125.42
2017-06-01T08:59:17.163Z,137.72
2017-06-01T09:01:46.384Z,126.40
2017-06-01T09:04:14.651Z,129.72
2017-06-01T09:06:43.603Z,148.24
2017-06-01T09:09:12.018Z,155.72
2017-06-01T09:11:40.931Z,146.22
2017-06-01T09:14:09.176Z,134.04
2017-06-01T09:16:38.263Z,138.26
2017-06-01T09:19:07.267Z,151.82
2017-06-01T09:21:35.413Z,169.82
2017-06-01T09:24:04.587Z,143.52
2017-06-01T09:26:32.860Z,144.26
2017-06-01T09:29:01.823Z,129.78
2017-06-01T09:31:30.951Z,144.44
2017-06-01T09:33:59.119Z,131.82
2017-06-01T09:36:27.336Z,131.80
2017-06-01T09:38:55.687Z,127.02
2017-06-01T09:41:24.596Z,143.92
2017-06-01T09:43:53.548Z,149.62
2017-06-01T09:46:21.847Z,123.08
2017-06-01T09:48:50.707Z,124.12
2017-06-01T09:51:19.736Z,123.90
2017-06-01T09:53:48.128Z,122.78
2017-06-01T09:56:17.091Z,103.52
2017-06-01T09:58:46.052Z,123.40
2017-06-01T10:01:14.441Z,110.70
2017-06-01T10:03:42.753Z,124.98
2017-06-01T10:06:11.760Z,117.78
2017-06-01T10:08:41.022Z,126.16
2017-06-01T10:11:09.288Z,116.08
2017-06-01T10:13:39.055Z,131.34
2017-06-01T10:16:07.402Z,98.80
2017-06-01T10:18:36.372Z,97.14
2017-06-01T10:21:05.328Z,102.06
2017-06-01T10:23:34.467Z,98.74
2017-06-01T10:26:02.651Z,121.36
2017-06-01T10:28:31.571Z,100.04
2017-06-01T10:31:00.692Z,99.00
2017-06-01T10:33:29.703Z,98.36
2017-06-01T10:35:58.706Z,94.54
2017-06-01T10:38:27.819Z,93.92
2017-06-01T10:40:56.087Z,119.00
2017-06-01T10:43:25.135Z,106.50
2017-06-01T10:45:53.611Z,118.44
2017-06-01T10:48:22.655Z,115.76
2017-06-01T10:50:50.871Z,123.46
2017-06-01T10:53:19.955Z,109.28
2017-06-01T10:55:48.963Z,91.08
2017-06-01T10:58:17.915Z,133.14
2017-06-01T11:00:47.020Z,103.98
2017-06-01T11:03:15.227Z,122.00
2017-06-01T11:05:43.615Z,106.76
2017-06-01T11:08:12.780Z,150.86
2017-06-01T11:10:41.103Z,103.54
2017-06-01T11:13:10.051Z,110.50
2017-06-01T11:15:39.155Z,108.52
2017-06-01T11:18:07.365Z,109.08
2017-06-01T11:20:36.323Z,123.62
2017-06-01T11:23:04.677Z,111.42
2017-06-01T11:25:33.647Z,107.44
2017-06-01T11:28:02.567Z,106.76
2017-06-01T11:30:31.663Z,110.32
2017-06-01T11:33:00.611Z,128.62
2017-06-01T11:35:29.619Z,115.24
2017-06-01T11:37:57.939Z,119.14
2017-06-01T11:40:26.859Z,123.38
2017-06-01T11:42:55.035Z,141.72
2017-06-01T11:45:24.091Z,135.22
2017-06-01T11:47:52.991Z,131.12
2017-06-01T11:50:22.003Z,116.18
2017-06-01T11:52:51.056Z,128.02
2017-06-01T11:55:20.080Z,115.90
2017-06-01T11:57:49.091Z,107.54
2017-06-01T12:00:17.451Z,144.92
2017-06-01T12:02:45.711Z,142.92
2017-06-01T12:05:14.616Z,136.62
2017-06-01T12:07:43.844Z,138.46
2017-06-01T12:10:12.111Z,110.74
2017-06-01T12:12:41.165Z,122.38
2017-06-01T12:15:10.251Z,151.42
2017-06-01T12:17:38.511Z,162.66
2017-06-01T12:20:07.479Z,158.58
2017-06-01T12:22:35.795Z,153.98
2017-06-01T12:25:04.711Z,137.10
2017-06-01T12:27:33.695Z,161.14
2017-06-01T12:30:01.901Z,164.18
2017-06-01T12:32:30.862Z,157.32
2017-06-01T12:34:58.992Z,151.86
2017-06-01T12:37:28.091Z,164.74
2017-06-01T12:39:56.399Z,169.14
2017-06-01T12:42:24.731Z,144.20
2017-06-01T12:44:53.087Z,174.20
2017-06-01T12:47:22.103Z,149.32
2017-06-01T12:49:51.052Z,128.46
2017-06-01T12:52:20.087Z,144.18
2017-06-01T12:54:49.128Z,160.94
2017-06-01T12:57:17.335Z,165.16
2017-06-01T12:59:46.539Z,149.34
2017-06-01T13:02:14.679Z,125.32
2017-06-01T13:04:42.909Z,152.56
2017-06-01T13:07:11.264Z,132.84
2017-06-01T13:09:40.411Z,167.42
2017-06-01T13:12:09.312Z,148.80
2017-06-01T13:14:38.351Z,140.72
2017-06-01T13:17:06.660Z,147.74
2017-06-01T13:19:34.951Z,125.28
2017-06-01T13:22:04.146Z,121.62
2017-06-01T13:24:33.215Z,143.68
2017-06-01T13:27:01.340Z,163.68
2017-06-01T13:29:29.735Z,141.86
2017-06-01T13:31:58.711Z,162.82
2017-06-01T13:34:27.676Z,156.78
2017-06-01T13:36:56.712Z,161.06
2017-06-01T13:39:25.727Z,127.96
2017-06-01T13:41:54.680Z,146.72
2017-06-01T13:44:23.811Z,165.30
2017-06-01T13:46:52.187Z,149.48
2017-06-01T13:49:21.149Z,155.14
2017-06-01T13:51:50.249Z,153.18
2017-06-01T13:54:18.416Z,138.52
2017-06-01T13:56:47.344Z,166.76
2017-06-01T13:59:16.523Z,145.42
2017-06-01T14:01:45.499Z,167.44
2017-06-01T14:04:14.851Z,146.68
2017-06-01T14:06:44.088Z,158.20
2017-06-01T14:09:13.151Z,145.04
2017-06-01T14:11:42.236Z,159.66
2017-06-01T14:14:11.376Z,160.50
2017-06-01T14:16:40.348Z,133.30
2017-06-01T14:19:09.252Z,141.06
2017-06-01T14:21:37.503Z,157.74
2017-06-01T14:24:05.814Z,146.76
2017-06-01T14:26:34.027Z,162.94
2017-06-01T14:29:03.124Z,163.60
2017-06-01T14:31:31.396Z,172.26
2017-06-01T14:34:00.341Z,150.38
2017-06-01T14:36:29.468Z,159.52
2017-06-01T14:38:58.487Z,142.54
2017-06-01T14:41:27.447Z,135.92
2017-06-01T14:43:56.487Z,140.08
2017-06-01T14:46:25.440Z,135.50
2017-06-01T14:48:53.588Z,124.84
2017-06-01T14:51:22.732Z,140.38
2017-06-01T14:53:51.692Z,160.52
2017-06-01T14:56:20.704Z,142.54
2017-06-01T14:58:49.835Z,129.90
2017-06-01T15:01:18.785Z,128.84
2017-06-01T15:03:48.065Z,131.64
2017-06-01T15:06:16.320Z,124.14
2017-06-01T15:08:45.319Z,133.60
2017-06-01T15:11:14.307Z,145.44
2017-06-01T15:13:43.446Z,133.48
2017-06-01T15:16:11.659Z,126.76
2017-06-01T15:18:39.920Z,103.36
2017-06-01T15:21:09.007Z,111.36
2017-06-01T15:23:37.923Z,120.70
2017-06-01T15:26:06.842Z,104.14
2017-06-01T15:28:35.932Z,145.18
2017-06-01T15:31:04.091Z,122.50
2017-06-01T15:33:32.303Z,101.86
2017-06-01T15:36:00.604Z,128.90
2017-06-01T15:38:28.779Z,114.48
2017-06-01T15:40:57.723Z,102.54
2017-06-01T15:43:26.082Z,98.52
2017-06-01T15:45:55.066Z,101.56
2017-06-01T15:48:24.068Z,116.16
2017-06-01T15:50:52.393Z,95.90
2017-06-01T15:53:21.345Z,125.22
2017-06-01T15:55:50.276Z,104.14
2017-06-01T15:58:19.306Z,110.74
2017-06-01T16:00:48.202Z,99.00
2017-06-01T16:03:16.354Z,120.80
2017-06-01T16:05:45.419Z,101.42
2017-06-01T16:08:14.365Z,102.80
2017-06-01T16:10:43.263Z,99.06
2017-06-01T16:13:11.602Z,84.34
2017-06-01T16:15:40.685Z,81.26
2017-06-01T16:18:09.585Z,90.18
2017-06-01T16:20:37.915Z,99.94
2017-06-01T16:23:06.030Z,85.78
2017-06-01T16:25:35.005Z,84.34
2017-06-01T16:28:03.250Z,93.92
2017-06-01T16:30:31.490Z,95.42
2017-06-01T16:33:00.417Z,80.06
2017-06-01T16:35:28.746Z,106.02
2017-06-01T16:37:57.706Z,87.64
2017-06-01T16:40:26.658Z,80.78
2017-06-01T16:42:55.676Z,99.40
2017-06-01T16:45:23.902Z,91.30
2017-06-01T16:47:52.789Z,87.38
2017-06-01T16:50:21.821Z,83.34
2017-06-01T16:52:49.977Z,85.70
2017-06-01T16:55:18.921Z,101.32
2017-06-01T16:57:47.257Z,78.92
2017-06-01T17:00:15.409Z,78.52
2017-06-01T17:02:44.390Z,81.90
2017-06-01T17:05:13.478Z,91.16
2017-06-01T17:07:41.673Z,85.84
2017-06-01T17:10:10.646Z,74.50
2017-06-01T17:12:38.981Z,76.00
2017-06-01T17:15:07.218Z,72.38
2017-06-01T17:17:36.313Z,53.98
2017-06-01T17:20:04.638Z,68.28
2017-06-01T17:22:32.765Z,55.38
2017-06-01T17:25:00.957Z,75.30
2017-06-01T17:27:30.017Z,57.34
2017-06-01T17:29:59.057Z,66.82
2017-06-01T17:32:28.005Z,72.12
2017-06-01T17:34:56.994Z,70.58
2017-06-01T17:37:26.079Z,75.04
2017-06-01T17:39:55.018Z,67.80
2017-06-01T17:42:24.059Z,55.36
2017-06-01T17:44:52.966Z,58.38
2017-06-01T17:47:21.211Z,47.90
2017-06-01T17:50:05.057Z,52.82
2017-06-01T17:52:33.214Z,76.58
2017-06-01T17:55:02.382Z,79.72
2017-06-01T17:57:31.429Z,65.96
2017-06-01T18:00:00.335Z,61.78
2017-06-01T18:02:28.502Z,61.68
2017-06-01T18:04:57.449Z,73.18
2017-06-01T18:07:26.362Z,63.08
2017-06-01T18:09:55.270Z,67.84
2017-06-01T18:12:23.537Z,64.36
2017-06-01T18:14:52.466Z,49.56
2017-06-01T18:17:20.707Z,60.78
2017-06-01T18:19:49.714Z,70.24
2017-06-01T18:22:18.607Z,60.76
2017-06-01T18:24:48.600Z,70.08
2017-06-01T18:27:17.714Z,60.28
2017-06-01T18:29:46.610Z,59.48
2017-06-01T18:32:15.650Z,60.48
2017-06-01T18:34:44.679Z,50.08
2017-06-01T18:37:13.054Z,65.38
2017-06-01T18:39:41.335Z,55.90
2017-06-01T18:42:09.614Z,62.04
2017-06-01T18:44:38.500Z,57.02
2017-06-01T18:47:06.745Z,66.42
2017-06-01T18:49:35.753Z,62.26
2017-06-01T18:52:03.957Z,56.78
2017-06-01T18:54:32.846Z,58.36
2017-06-01T18:57:01.818Z,53.06
2017-06-01T18:59:30.705Z,51.20
2017-06-01T19:01:59.638Z,52.14
2017-06-01T19:04:28.668Z,48.48
2017-06-01T19:06:56.904Z,51.34
2017-06-01T19:09:25.846Z,56.16
2017-06-01T19:11:54.249Z,51.30
2017-06-01T19:14:23.182Z,50.78
2017-06-01T19:16:52.114Z,62.72
2017-06-01T19:19:21.090Z,52.04
2017-06-01T19:21:50.185Z,59.46
2017-06-01T19:24:18.378Z,48.28
2017-06-01T19:26:47.445Z,58.78
2017-06-01T19:29:15.727Z,53.12
2017-06-01T19:31:44.707Z,69.48
2017-06-01T19:34:13.773Z,47.58
2017-06-01T19:36:42.662Z,58.64
2017-06-01T19:39:10.950Z,60.14
2017-06-01T19:41:40.625Z,59.64
2017-06-01T19:44:09.566Z,53.02
2017-06-01T19:46:37.730Z,46.70
2017-06-01T19:49:06.834Z,48.40
2017-06-01T19:51:35.721Z,41.40
2017-06-01T19:54:04.584Z,54.88
2017-06-01T19:56:33.613Z,44.94
2017-06-01T19:59:01.723Z,49.10
2017-06-01T20:01:37.454Z,50.74
2017-06-01T20:04:05.659Z,43.72
2017-06-01T20:06:34.651Z,49.40
2017-06-01T20:09:03.874Z,52.62
2017-06-01T20:11:32.822Z,60.30
2017-06-01T20:14:01.813Z,48.64
2017-06-01T20:16:30.850Z,55.26
2017-06-01T20:18:59.794Z,54.18
2017-06-01T20:21:28.033Z,47.10
2017-06-01T20:23:57.233Z,60.06
2017-06-01T20:26:25.353Z,58.80
2017-06-01T20:28:53.622Z,48.10
2017-06-01T20:31:22.726Z,57.90
2017-06-01T20:33:51.646Z,60.14
2017-06-01T20:36:20.618Z,58.86
2017-06-01T20:38:49.766Z,48.78
2017-06-01T20:41:17.956Z,66.56
2017-06-01T20:43:46.853Z,51.32
2017-06-01T20:46:15.258Z,67.26
2017-06-01T20:48:44.202Z,57.98
2017-06-01T20:51:13.226Z,65.34
2017-06-01T20:53:41.594Z,59.78
2017-06-01T20:56:10.530Z,57.10
2017-06-01T20:58:39.465Z,59.98
2017-06-01T21:01:07.833Z,68.74
2017-06-01T21:03:35.941Z,62.78
2017-06-01T21:06:04.138Z,68.62
2017-06-01T21:08:32.409Z,61.28
2017-06-01T21:11:01.397Z,58.64
2017-06-01T21:13:30.249Z,81.96
2017-06-01T21:15:58.626Z,85.90
2017-06-01T21:18:27.520Z,77.88
2017-06-01T21:20:56.470Z,77.14
2017-06-01T21:23:24.890Z,84.52
2017-06-01T21:25:54.024Z,88.80
2017-06-01T21:28:22.917Z,82.92
2017-06-01T21:30:51.882Z,82.84
2017-06-01T21:33:20.118Z,82.28
2017-06-01T21:35:49.114Z,91.84
2017-06-01T21:38:18.225Z,86.58
2017-06-01T21:40:47.258Z,93.90
2017-06-01T21:43:15.414Z,85.18
2017-06-01T21:45:44.490Z,73.14
2017-06-01T21:48:13.518Z,72.78
2017-06-01T21:50:42.413Z,71.06
2017-06-01T21:53:11.454Z,69.60
2017-06-01T21:55:40.425Z,81.88
2017-06-01T21:58:08.614Z,83.90
2017-06-01T22:00:37.677Z,80.04
2017-06-01T22:03:06.656Z,79.50
2017-06-01T22:05:35.648Z,74.60
2017-06-01T22:08:04.750Z,104.04
2017-06-01T22:10:33.689Z,79.22
2017-06-01T22:13:02.626Z,85.98
2017-06-01T22:15:31.645Z,80.02
2017-06-01T22:18:00.590Z,74.70
2017-06-01T22:20:29.517Z,103.70
2017-06-01T22:22:58.604Z,80.42
2017-06-01T22:25:26.790Z,89.50
2017-06-01T22:27:55.829Z,76.98
2017-06-01T22:30:24.933Z,76.92
2017-06-01T22:32:53.866Z,86.52
2017-06-01T22:35:22.850Z,94.08
2017-06-01T22:37:51.173Z,88.32
2017-06-01T22:40:20.138Z,75.74
2017-06-01T22:42:48.987Z,83.48
2017-06-01T22:45:18.002Z,81.96
2017-06-01T22:47:46.149Z,99.06
2017-06-01T22:50:15.086Z,66.94
2017-06-01T22:52:44.113Z,61.90
2017-06-01T22:55:12.957Z,69.26
2017-06-01T22:57:41.189Z,62.28
2017-06-01T23:00:09.457Z,62.16
2017-06-01T23:02:38.398Z,60.72
2017-06-01T23:05:07.382Z,66.22
2017-06-01T23:07:36.493Z,72.50
2017-06-01T23:10:05.514Z,85.04
2017-06-01T23:12:33.657Z,62.38
2017-06-01T23:15:01.938Z,78.94
2017-06-01T23:17:30.869Z,86.86
2017-06-01T23:19:59.846Z,69.58
2017-06-01T23:22:28.906Z,76.96
2017-06-01T23:24:57.842Z,66.98
2017-06-01T23:27:26.025Z,73.72
2017-06-01T23:29:55.225Z,67.78
2017-06-01T23:32:23.425Z,61.52
2017-06-01T23:34:52.421Z,71.52
2017-06-01T23:37:21.534Z,76.62
2017-06-01T23:39:50.421Z,54.50
2017-06-01T23:42:19.314Z,56.20
2017-06-01T23:44:47.660Z,58.54
2017-06-01T23:47:16.610Z,77.40
2017-06-01T23:49:44.853Z,64.78
2017-06-01T23:52:13.203Z,67.98
2017-06-01T23:54:41.397Z,50.86
2017-06-01T23:57:10.377Z,59.54
2017-06-01T23:59:38.693Z,61.78
